GOOYFMMA

Guest
Details From GOOY - Dakar Leopold Sedar Senghor Intl
To FMMA - Antananarivo Arivonimamo
Flight Number -
Tags Generated
Created
Modified
Stats Distance 4,353 nm / 8,062 km
Max Altitude 0 ft / 0 m
Waypoints 5
Social Downloads 0
Likes 0
Share VATSIM

Download

Looking for another format? Having issues loading an existing format? Contact us
Advertisement - Login to hide

Notes

Generated

Route

GOOY OD NALSA IO FMMA

ID Type Via Altitude Latitude Longitude Leg Dist Tot Dist Heading (true) Name
O GOOY APT - 0 ft / 0 m 14.73171˚ -17.50427˚ - 0 nm - -
OD NDB - 0 ft / 0 m 9.54911˚ -7.54861˚ 662 nm 662 nm 117° / 119° ODIENNE NDB
NALSA FIX - 0 ft / 0 m -12.98600˚ 33.88199˚ 2817 nm 3479 nm 118° / 117° -
IO NDB - 0 ft / 0 m -18.78408˚ 47.39289˚ 854 nm 4333 nm 116° / 112° ANTANANARIVO IVATO NDB
O FMMA APT - 0 ft / 0 m -19.02572˚ 47.16040˚ 19 nm 4352 nm 222° / 222° -

Altitude Profile

Advertisement - Login to hide

Weather


0- 5 10 15 20 25 30 35+ Temperature / ° C

Clouds and Precipitation
Forecast for 2017-12-12 06:00 UTC. Updated 2 hours ago

Ground ~20,000 ft ~40,000 ft Winds

GOOY

Details ICAO GOOY (DKR)
Name Dakar Leopold Sedar Senghor Intl
Region Senegal
Timezone Africa/Dakar (UTC+0.0)
Stats Elevation 85 ft / 26 m (AMSL)
Location 14.739711° -17.490226°
Runways 2
Magnetic Variation 7.348° W

METAR

GOOY 120400Z 04012KT 6000 NSC 23/15 Q1012

Decode

TAF

TAF GOOY 112330Z 1200/1306 36010KT 4500 DU NSC= TAF GBYD 112330Z 1200/1306 35006KT 8000 NSC

Decode

Departure Runways

ID Width Length Bearing (true) Bearing (mag) Surface Threshold Offset Overrun Length
03 98 ft / 30 m 4,921 ft / 1,500 m 22.31° 29.66° Asphalt 0 ft / 0 m 98 ft / 30 m
18 148 ft / 45 m 11,511 ft / 3,509 m 172.57° 179.92° Asphalt 525 ft / 160 m 197 ft / 60 m
21 98 ft / 30 m 4,921 ft / 1,500 m 202.31° 209.66° Asphalt 0 ft / 0 m 1,590 ft / 485 m
36 148 ft / 45 m 11,511 ft / 3,509 m 352.57° 359.92° Asphalt 0 ft / 0 m 197 ft / 60 m

FMMA

Details ICAO FMMA
Name ANTANANARIVO ARIVONIMAMO
Region Comoros, Mayotte, Réunion and Madagascar
Timezone Indian/Antananarivo (UTC+3.0)
Stats Elevation 4,757 ft / 1,450 m (AMSL)
Location -19.029001° 47.171811°
Runways 1
Magnetic Variation 15.372° W

METAR

Not found

TAF

Not found

Destination Runways

ID Width Length Bearing (true) Bearing (mag) Surface Threshold Offset Overrun Length
12 148 ft / 45 m 8,231 ft / 2,509 m 106.92° 122.29° Asphalt 0 ft / 0 m 665 ft / 203 m
30 148 ft / 45 m 8,231 ft / 2,509 m 286.91° 302.28° Asphalt 0 ft / 0 m 595 ft / 181 m

Popular Alternatives